Time;durP1;ratioP1;P1;durP2;ratioP2;P2;SDS_P1;SDS_P2;PMS_P1;PMS_P2;Temp;Humidity;BMP_temperature;BMP_pressure;BME280_temperature;BME280_humidity;BME280_pressure;Samples;Min_cycle;Max_cycle;Signal;HPM_P1;HPM_P2
2021/09/29 00:00:40;;;;;;;2.47;1.73;;;12.70;99.90;;;;;;5029100;28;20654;-69
2021/09/29 00:03:06;;;;;;;11.23;2.20;;;12.70;99.90;;;;;;5030537;28;20650;-69
2021/09/29 00:05:32;;;;;;;5.17;2.00;;;12.70;99.90;;;;;;5030555;28;20254;-69
2021/09/29 00:07:57;;;;;;;4.27;2.30;;;12.70;99.90;;;;;;5026639;28;20901;-69
2021/09/29 00:10:23;;;;;;;5.83;2.27;;;12.80;99.90;;;;;;5027390;28;20424;-69
2021/09/29 00:12:48;;;;;;;7.10;2.10;;;12.80;99.90;;;;;;5028091;28;20732;-69
2021/09/29 00:15:16;;;;;;;5.17;2.03;;;12.80;99.90;;;;;;5029310;28;20222;-69
2021/09/29 00:17:45;;;;;;;3.00;2.00;;;12.80;99.90;;;;;;5030811;28;20598;-69
2021/09/29 00:20:13;;;;;;;2.60;1.70;;;12.90;99.90;;;;;;5029759;28;20430;-69
2021/09/29 00:22:40;;;;;;;5.60;1.50;;;12.90;99.90;;;;;;5029810;28;20495;-69
2021/09/29 00:25:07;;;;;;;6.80;1.87;;;12.90;99.90;;;;;;5029091;28;20419;-69
2021/09/29 00:27:32;;;;;;;5.93;2.20;;;12.90;99.90;;;;;;5022578;28;20459;-69
2021/09/29 00:30:04;;;;;;;4.87;1.70;;;13.00;99.90;;;;;;5026897;28;20416;-69
2021/09/29 00:32:30;;;;;;;4.10;1.80;;;13.00;99.90;;;;;;5029310;28;20157;-69
2021/09/29 00:34:57;;;;;;;8.60;2.23;;;13.00;99.90;;;;;;5022510;28;20415;-69
2021/09/29 00:37:23;;;;;;;4.33;1.90;;;13.00;99.90;;;;;;5029445;28;20411;-69
2021/09/29 00:39:48;;;;;;;6.53;2.53;;;13.00;99.90;;;;;;5023348;28;20416;-69
2021/09/29 00:42:14;;;;;;;7.23;2.10;;;13.00;99.90;;;;;;5029052;28;20176;-69
2021/09/29 00:44:39;;;;;;;5.63;2.10;;;13.00;99.90;;;;;;5024678;28;20243;-69
2021/09/29 00:47:05;;;;;;;2.87;1.90;;;13.00;99.90;;;;;;5029754;28;20455;-69
2021/09/29 00:49:31;;;;;;;3.77;1.73;;;13.00;99.90;;;;;;5029072;28;20607;-69
2021/09/29 00:51:57;;;;;;;5.37;1.80;;;13.00;99.90;;;;;;5029576;28;20255;-69
2021/09/29 00:54:28;;;;;;;7.93;2.00;;;13.00;99.90;;;;;;5024669;28;20177;-69
2021/09/29 00:56:53;;;;;;;6.93;2.07;;;13.00;99.90;;;;;;5032265;28;20473;-69
2021/09/29 00:59:19;;;;;;;5.73;2.40;;;13.00;99.90;;;;;;5032308;28;20467;-69
2021/09/29 01:01:46;;;;;;;4.90;2.43;;;13.00;99.90;;;;;;5027815;28;20184;-69
2021/09/29 01:04:12;;;;;;;3.23;1.60;;;13.00;99.90;;;;;;5028293;28;20585;-69
2021/09/29 01:06:45;;;;;;;4.23;2.10;;;13.00;99.90;;;;;;5034212;28;20466;-69
2021/09/29 01:17:44;;;;;;;5.83;2.97;;;13.00;99.90;;;;;;5086482;27;20530;-70
2021/09/29 01:28:32;;;;;;;2.80;1.97;;;12.90;99.90;;;;;;5047580;28;20514;-70
2021/09/29 01:30:59;;;;;;;4.57;2.30;;;12.80;99.90;;;;;;5049455;28;20415;-70
2021/09/29 01:33:27;;;;;;;4.77;2.30;;;12.80;99.90;;;;;;5043774;28;20404;-70
2021/09/29 01:35:53;;;;;;;4.90;1.80;;;12.80;99.90;;;;;;5046222;28;20430;-70
2021/09/29 01:38:18;;;;;;;3.73;1.70;;;12.80;99.90;;;;;;5047687;28;20401;-71
2021/09/29 01:40:44;;;;;;;3.33;1.93;;;12.80;99.90;;;;;;5048588;28;20420;-70
2021/09/29 01:43:10;;;;;;;3.10;1.90;;;12.80;99.90;;;;;;5045915;28;20185;-70
2021/09/29 01:45:36;;;;;;;3.10;2.20;;;12.80;99.90;;;;;;5049481;28;20208;-70
2021/09/29 01:48:02;;;;;;;2.73;2.20;;;12.80;99.90;;;;;;5042487;28;20667;-70
2021/09/29 01:50:29;;;;;;;5.63;2.07;;;12.80;99.90;;;;;;5050787;28;20465;-70
2021/09/29 01:52:57;;;;;;;4.80;2.00;;;12.80;99.90;;;;;;5043536;28;20905;-70
2021/09/29 01:55:24;;;;;;;3.70;1.90;;;12.70;99.90;;;;;;5044897;28;20792;-70
2021/09/29 01:57:52;;;;;;;4.70;1.93;;;12.70;99.90;;;;;;5048643;28;20434;-70
2021/09/29 02:00:18;;;;;;;8.70;2.50;;;12.70;99.90;;;;;;5048457;28;20936;-70
2021/09/29 02:02:45;;;;;;;5.37;2.40;;;12.70;99.90;;;;;;5045189;28;20917;-70
2021/09/29 02:05:12;;;;;;;2.80;2.03;;;12.70;99.90;;;;;;5048604;28;20421;-70
2021/09/29 02:07:38;;;;;;;7.60;2.43;;;12.70;99.90;;;;;;5048203;28;20463;-70
2021/09/29 02:10:06;;;;;;;3.90;1.97;;;12.60;99.90;;;;;;5044783;28;20415;-70
2021/09/29 02:12:32;;;;;;;3.50;2.00;;;12.60;99.90;;;;;;5048336;28;20448;-70
2021/09/29 02:14:58;;;;;;;4.40;2.30;;;12.60;99.90;;;;;;5048461;28;20852;-70
2021/09/29 02:17:23;;;;;;;4.97;2.50;;;12.60;99.90;;;;;;5046800;28;20587;-70
2021/09/29 02:19:49;;;;;;;7.97;2.00;;;12.60;99.90;;;;;;5048322;28;20184;-70
2021/09/29 02:22:16;;;;;;;3.73;2.13;;;12.60;99.90;;;;;;5045208;28;20181;-70
2021/09/29 02:24:43;;;;;;;3.17;2.07;;;12.50;99.90;;;;;;5046471;28;20180;-70
2021/09/29 02:27:09;;;;;;;6.30;2.10;;;12.60;99.90;;;;;;5044699;28;20564;-70
2021/09/29 02:29:35;;;;;;;4.67;2.20;;;12.60;99.90;;;;;;5046025;28;20830;-71
2021/09/29 02:32:01;;;;;;;3.73;1.97;;;12.50;99.90;;;;;;5048777;28;20176;-74
2021/09/29 02:34:26;;;;;;;3.93;1.97;;;12.50;99.90;;;;;;5044374;28;20177;-71
2021/09/29 02:36:52;;;;;;;2.77;2.00;;;12.50;99.90;;;;;;5047960;28;20268;-71
2021/09/29 02:39:18;;;;;;;6.90;2.37;;;12.60;99.90;;;;;;5037513;28;20188;-71
2021/09/29 02:41:43;;;;;;;4.33;1.83;;;12.60;99.90;;;;;;5031154;28;20221;-71
2021/09/29 02:44:11;;;;;;;3.50;1.80;;;12.60;99.90;;;;;;5035431;28;20188;-71
2021/09/29 02:46:38;;;;;;;3.60;1.87;;;12.60;99.90;;;;;;5030395;28;20556;-71
2021/09/29 02:49:04;;;;;;;2.73;1.80;;;12.60;99.90;;;;;;5034844;28;20419;-71
2021/09/29 02:51:29;;;;;;;3.60;1.90;;;12.60;99.90;;;;;;5030554;28;20421;-70
2021/09/29 02:53:57;;;;;;;6.23;2.57;;;12.60;99.90;;;;;;5034375;28;20438;-71
2021/09/29 02:56:23;;;;;;;6.97;2.47;;;12.70;99.90;;;;;;5032689;28;20173;-71
2021/09/29 02:58:49;;;;;;;5.90;2.30;;;12.70;99.90;;;;;;5033999;28;20432;-71
2021/09/29 03:01:14;;;;;;;2.40;2.20;;;12.70;99.90;;;;;;5035014;28;20528;-71
2021/09/29 03:03:40;;;;;;;5.57;2.20;;;12.70;99.90;;;;;;5031453;28;20594;-71
2021/09/29 03:06:05;;;;;;;4.50;1.93;;;12.70;99.90;;;;;;5030636;28;20259;-71
2021/09/29 03:08:31;;;;;;;4.63;2.30;;;12.70;99.90;;;;;;5030738;28;20173;-71
2021/09/29 03:10:56;;;;;;;5.07;2.53;;;12.70;99.90;;;;;;5034087;28;20185;-71
2021/09/29 03:13:22;;;;;;;5.73;2.50;;;12.80;99.90;;;;;;5033703;28;20198;-71
2021/09/29 03:15:48;;;;;;;4.63;2.27;;;12.80;99.90;;;;;;5033417;28;20173;-71
2021/09/29 03:18:14;;;;;;;2.70;2.40;;;12.80;99.90;;;;;;5031107;28;20181;-71
2021/09/29 03:20:40;;;;;;;4.77;2.13;;;12.80;99.90;;;;;;5027880;28;20186;-71
2021/09/29 03:23:06;;;;;;;12.13;3.07;;;12.80;99.90;;;;;;5033923;28;20431;-71
2021/09/29 03:25:32;;;;;;;3.63;2.40;;;12.80;99.90;;;;;;5028664;28;20420;-73
2021/09/29 03:27:58;;;;;;;6.10;2.87;;;12.70;99.90;;;;;;5033408;28;20291;-73
2021/09/29 03:30:23;;;;;;;3.10;2.13;;;12.70;99.90;;;;;;5038862;28;20422;-72
2021/09/29 03:32:49;;;;;;;8.07;2.90;;;12.70;99.90;;;;;;5032718;28;20805;-71
2021/09/29 03:35:15;;;;;;;4.90;2.93;;;12.70;99.90;;;;;;5030759;28;20184;-71
2021/09/29 03:37:41;;;;;;;3.30;2.30;;;12.70;99.90;;;;;;5031448;28;20606;-73
2021/09/29 03:40:09;;;;;;;4.03;2.63;;;12.70;99.90;;;;;;5031345;28;20530;-73
2021/09/29 03:42:35;;;;;;;3.30;2.87;;;12.70;99.90;;;;;;5033509;28;20430;-73
2021/09/29 03:45:01;;;;;;;4.33;2.60;;;12.70;99.90;;;;;;5030068;28;20423;-73
2021/09/29 03:47:26;;;;;;;5.83;2.53;;;12.70;99.90;;;;;;5034412;28;20462;-74
2021/09/29 03:49:52;;;;;;;4.77;2.33;;;12.70;99.90;;;;;;5033448;28;20293;-74
2021/09/29 03:52:18;;;;;;;5.67;2.90;;;12.70;99.90;;;;;;5027586;28;20185;-74
2021/09/29 03:54:43;;;;;;;7.10;3.27;;;12.70;99.90;;;;;;5028587;28;20173;-74
2021/09/29 03:57:09;;;;;;;6.30;2.87;;;12.70;99.90;;;;;;5033451;28;20263;-74
2021/09/29 03:59:34;;;;;;;3.53;2.67;;;12.70;99.90;;;;;;5032943;28;20599;-74
2021/09/29 04:02:00;;;;;;;5.20;2.93;;;12.70;99.90;;;;;;5031942;28;20616;-74
2021/09/29 04:04:26;;;;;;;5.90;2.60;;;12.70;99.90;;;;;;5033378;28;20181;-74
2021/09/29 04:06:52;;;;;;;3.67;2.73;;;12.70;99.90;;;;;;5032944;28;20225;-74
2021/09/29 04:09:17;;;;;;;5.57;2.83;;;12.70;99.90;;;;;;5029994;28;20812;-74
2021/09/29 04:11:43;;;;;;;5.27;3.13;;;12.70;99.90;;;;;;5031234;28;20207;-74
2021/09/29 04:14:08;;;;;;;6.13;2.77;;;12.70;99.90;;;;;;5032677;28;20169;-74
2021/09/29 04:16:34;;;;;;;5.33;3.27;;;12.70;99.90;;;;;;5032057;28;20177;-74
2021/09/29 04:19:01;;;;;;;7.27;4.60;;;12.70;99.90;;;;;;5034144;28;20180;-74
2021/09/29 04:21:27;;;;;;;8.87;3.60;;;12.60;99.90;;;;;;5028777;28;20184;-74
2021/09/29 04:23:53;;;;;;;4.10;2.70;;;12.60;99.90;;;;;;5031570;28;21025;-74
2021/09/29 04:26:19;;;;;;;8.40;4.27;;;12.60;99.90;;;;;;5030754;28;20494;-74
2021/09/29 04:28:44;;;;;;;4.03;3.03;;;12.60;99.90;;;;;;5031968;28;20925;-74
2021/09/29 04:31:10;;;;;;;5.87;3.17;;;12.50;99.90;;;;;;5031426;28;20177;-74
2021/09/29 04:33:36;;;;;;;4.20;2.53;;;12.50;99.90;;;;;;5029438;28;20188;-74
2021/09/29 04:36:03;;;;;;;8.43;3.43;;;12.50;99.90;;;;;;5032459;28;20180;-74
2021/09/29 04:38:29;;;;;;;4.00;2.83;;;12.40;99.90;;;;;;5030859;28;20554;-74
2021/09/29 04:40:55;;;;;;;6.07;4.70;;;12.40;99.90;;;;;;5032400;28;20431;-74
2021/09/29 04:43:20;;;;;;;8.17;3.00;;;12.40;99.90;;;;;;5030411;28;20649;-74
2021/09/29 04:45:47;;;;;;;7.60;3.33;;;12.40;99.90;;;;;;5029907;28;20188;-74
2021/09/29 04:48:13;;;;;;;5.90;3.10;;;12.30;99.90;;;;;;5029022;28;20581;-74
2021/09/29 04:50:39;;;;;;;6.03;2.90;;;12.30;99.90;;;;;;5031923;28;20436;-74
2021/09/29 04:53:04;;;;;;;6.07;3.47;;;12.30;99.90;;;;;;5029815;28;20870;-74
2021/09/29 04:55:30;;;;;;;6.30;3.90;;;12.30;99.90;;;;;;5032534;28;20181;-74
2021/09/29 04:57:57;;;;;;;3.60;2.97;;;12.30;99.90;;;;;;5032628;28;20181;-74
2021/09/29 05:00:22;;;;;;;3.77;3.17;;;12.30;99.90;;;;;;5030744;28;20455;-74
2021/09/29 05:02:49;;;;;;;5.37;3.63;;;12.30;99.90;;;;;;5030891;28;20419;-74
2021/09/29 05:05:15;;;;;;;7.33;3.20;;;12.30;99.90;;;;;;5030981;28;20673;-74
2021/09/29 05:07:45;;;;;;;5.77;3.70;;;12.30;99.90;;;;;;5028164;28;20815;-74
2021/09/29 05:10:19;;;;;;;8.60;3.77;;;12.30;99.90;;;;;;5030943;28;20431;-74
2021/09/29 05:12:48;;;;;;;6.37;3.23;;;12.30;99.90;;;;;;5031599;28;20423;-74
2021/09/29 05:15:13;;;;;;;6.47;3.27;;;12.30;99.90;;;;;;5029432;28;20442;-74
2021/09/29 05:17:39;;;;;;;6.30;3.27;;;12.30;99.90;;;;;;5031087;28;21008;-74
2021/09/29 05:20:05;;;;;;;4.10;3.37;;;12.30;99.90;;;;;;5031046;28;20264;-74
2021/09/29 05:22:31;;;;;;;6.77;3.47;;;12.30;99.90;;;;;;5030820;28;20268;-74
2021/09/29 05:24:57;;;;;;;5.30;3.13;;;12.30;99.90;;;;;;5027981;28;20519;-74
2021/09/29 05:27:22;;;;;;;3.80;2.80;;;12.30;99.90;;;;;;5029671;28;20209;-74
2021/09/29 05:29:50;;;;;;;4.73;3.43;;;12.30;99.90;;;;;;5027670;28;20188;-74
2021/09/29 05:32:16;;;;;;;4.30;3.90;;;12.30;99.90;;;;;;5028288;28;20194;-74
2021/09/29 05:34:42;;;;;;;6.43;3.37;;;12.40;99.90;;;;;;5029500;28;20495;-74
2021/09/29 05:37:07;;;;;;;4.23;3.57;;;12.30;99.90;;;;;;5029812;28;20506;-74
2021/09/29 05:39:33;;;;;;;6.63;2.93;;;12.30;99.90;;;;;;5031376;28;20180;-74
2021/09/29 05:41:59;;;;;;;16.37;3.90;;;12.40;99.90;;;;;;5031297;28;20663;-74
2021/09/29 05:44:25;;;;;;;7.50;3.10;;;12.40;99.90;;;;;;5031165;28;20228;-74
2021/09/29 05:46:51;;;;;;;8.80;3.50;;;12.40;99.90;;;;;;5030980;28;20529;-74
2021/09/29 05:49:16;;;;;;;4.73;3.10;;;12.50;99.90;;;;;;5031244;28;20216;-74
2021/09/29 05:51:45;;;;;;;5.30;3.50;;;12.60;99.90;;;;;;5028001;28;20199;-74
2021/09/29 05:54:11;;;;;;;8.73;3.80;;;12.60;99.90;;;;;;5031160;28;20207;-74
2021/09/29 05:56:36;;;;;;;8.07;3.40;;;12.60;99.90;;;;;;5029148;28;20946;-74
2021/09/29 05:59:02;;;;;;;6.03;3.43;;;12.70;99.90;;;;;;5028527;28;20551;-74
2021/09/29 06:01:27;;;;;;;4.97;2.50;;;12.70;99.90;;;;;;5028538;28;20220;-74
2021/09/29 06:03:53;;;;;;;5.67;2.77;;;12.80;99.90;;;;;;5029187;28;20186;-74
2021/09/29 06:06:18;;;;;;;5.23;2.43;;;12.80;99.90;;;;;;5026966;28;20183;-74
2021/09/29 06:08:44;;;;;;;7.60;4.17;;;12.90;99.90;;;;;;5028474;28;20186;-74
2021/09/29 06:11:09;;;;;;;3.60;2.80;;;13.00;99.90;;;;;;5026275;28;20180;-74
2021/09/29 06:13:35;;;;;;;4.07;2.73;;;13.00;99.90;;;;;;5026678;28;20205;-74
2021/09/29 06:16:06;;;;;;;5.00;3.10;;;13.10;99.90;;;;;;5031804;28;20236;-74
2021/09/29 06:18:35;;;;;;;4.13;2.57;;;13.10;99.90;;;;;;5030136;28;20176;-74
2021/09/29 06:21:01;;;;;;;9.37;3.10;;;13.20;99.90;;;;;;5033637;28;20444;-74
2021/09/29 06:23:27;;;;;;;4.27;3.20;;;13.30;99.90;;;;;;5031968;28;20787;-74
2021/09/29 06:25:53;;;;;;;5.90;2.50;;;13.30;99.90;;;;;;5031188;28;20423;-74
2021/09/29 06:28:18;;;;;;;3.73;2.57;;;13.40;99.90;;;;;;5029912;28;20656;-74
2021/09/29 06:30:44;;;;;;;4.17;3.10;;;13.50;99.90;;;;;;5028936;28;20644;-74
2021/09/29 06:33:10;;;;;;;5.80;2.83;;;13.60;99.90;;;;;;5032535;28;20191;-74
2021/09/29 06:35:36;;;;;;;3.40;2.30;;;13.60;99.90;;;;;;5033934;28;20418;-74
2021/09/29 06:38:03;;;;;;;7.03;2.70;;;13.60;99.90;;;;;;5033254;28;20444;-74
2021/09/29 06:40:28;;;;;;;5.40;2.60;;;13.60;99.90;;;;;;5035095;28;20943;-74
2021/09/29 06:42:54;;;;;;;3.80;2.80;;;13.60;99.90;;;;;;5034593;28;20440;-74
2021/09/29 06:45:20;;;;;;;4.80;2.13;;;13.60;99.90;;;;;;5027976;28;20607;-74
2021/09/29 06:47:49;;;;;;;5.90;2.50;;;13.50;99.90;;;;;;5029333;28;20454;-74
2021/09/29 06:50:18;;;;;;;6.10;2.30;;;13.50;99.90;;;;;;5031043;28;20791;-74
2021/09/29 06:52:43;;;;;;;3.93;2.67;;;13.50;99.90;;;;;;5030968;28;20802;-74
2021/09/29 06:55:10;;;;;;;5.73;2.50;;;13.50;99.90;;;;;;5030813;28;20437;-74
2021/09/29 06:57:36;;;;;;;5.40;2.93;;;13.40;99.90;;;;;;5029826;28;20216;-73
2021/09/29 07:00:04;;;;;;;6.17;3.13;;;13.50;99.90;;;;;;5034278;28;20991;-73
2021/09/29 07:02:29;;;;;;;5.80;3.13;;;13.50;99.90;;;;;;5029921;28;20532;-73
2021/09/29 07:04:55;;;;;;;4.00;2.70;;;13.50;99.90;;;;;;5032787;28;20538;-73
2021/09/29 07:07:20;;;;;;;5.17;3.07;;;13.50;99.90;;;;;;5031675;28;20196;-73
2021/09/29 07:09:46;;;;;;;3.60;2.80;;;13.50;99.90;;;;;;5032472;28;20179;-73
2021/09/29 07:12:12;;;;;;;3.90;3.03;;;13.50;99.90;;;;;;5032332;28;20214;-73
2021/09/29 07:14:37;;;;;;;3.13;2.43;;;13.40;99.90;;;;;;5031905;28;20629;-73
2021/09/29 07:17:03;;;;;;;5.10;3.10;;;13.30;99.90;;;;;;5033481;28;20232;-73
2021/09/29 07:19:29;;;;;;;7.27;2.93;;;13.20;99.90;;;;;;5030634;28;20190;-73
2021/09/29 07:21:55;;;;;;;5.40;2.80;;;13.20;99.90;;;;;;5033050;28;20427;-73
2021/09/29 07:24:23;;;;;;;7.40;2.83;;;13.10;99.90;;;;;;5031527;28;20457;-73
2021/09/29 07:26:48;;;;;;;5.53;4.03;;;13.10;99.90;;;;;;5031838;28;20341;-74
2021/09/29 07:29:14;;;;;;;5.03;3.20;;;13.00;99.90;;;;;;5032358;28;20423;-74
2021/09/29 07:31:40;;;;;;;4.60;2.80;;;13.00;99.90;;;;;;5028904;28;20188;-74
2021/09/29 07:34:07;;;;;;;8.17;3.10;;;13.10;99.90;;;;;;5032739;28;20185;-73
2021/09/29 07:36:33;;;;;;;4.53;3.73;;;13.10;99.90;;;;;;5030423;28;20949;-73
2021/09/29 07:39:01;;;;;;;6.43;3.70;;;13.10;99.90;;;;;;5033105;28;20437;-73
2021/09/29 07:41:27;;;;;;;7.50;3.47;;;13.10;99.90;;;;;;5032766;28;20545;-73
2021/09/29 07:43:52;;;;;;;3.80;3.50;;;13.20;99.90;;;;;;5027769;28;20434;-73
2021/09/29 07:46:19;;;;;;;7.20;3.50;;;13.20;99.90;;;;;;5028187;28;20770;-73
2021/09/29 07:48:45;;;;;;;8.10;4.10;;;13.20;99.90;;;;;;5033381;28;20186;-73
2021/09/29 07:51:12;;;;;;;8.03;3.57;;;13.20;99.90;;;;;;5030763;28;20485;-74
2021/09/29 07:53:38;;;;;;;5.30;3.10;;;13.10;99.90;;;;;;5027534;28;20486;-73
2021/09/29 07:56:05;;;;;;;5.23;3.00;;;13.10;99.90;;;;;;5032637;28;20428;-74
2021/09/29 07:58:30;;;;;;;7.10;3.03;;;13.00;99.90;;;;;;5031421;28;20883;-73
2021/09/29 08:00:57;;;;;;;4.17;3.37;;;13.10;99.90;;;;;;5031081;28;20483;-73
2021/09/29 08:03:23;;;;;;;4.70;3.33;;;13.10;99.90;;;;;;5033901;28;20236;-74
2021/09/29 08:05:51;;;;;;;7.77;3.50;;;13.20;99.90;;;;;;5031773;28;20423;-72
2021/09/29 08:08:17;;;;;;;5.27;3.50;;;13.20;99.90;;;;;;5032561;28;20233;-74
2021/09/29 08:10:42;;;;;;;6.73;3.77;;;13.20;99.90;;;;;;5030541;28;20435;-74
2021/09/29 08:13:08;;;;;;;9.47;3.53;;;13.20;99.90;;;;;;5031266;28;20449;-73
2021/09/29 08:15:34;;;;;;;2.93;2.70;;;13.20;99.90;;;;;;5028058;28;20289;-73
2021/09/29 08:17:59;;;;;;;6.90;3.47;;;13.20;99.90;;;;;;5033400;28;20202;-74
2021/09/29 08:20:28;;;;;;;4.97;3.17;;;13.20;99.90;;;;;;5027510;28;20183;-73
2021/09/29 08:23:00;;;;;;;5.00;2.67;;;13.10;99.90;;;;;;5030494;28;20537;-73
2021/09/29 08:28:15;;;;;;;7.10;3.13;;;13.10;99.90;;;;;;5059105;28;20550;-72
2021/09/29 08:33:32;;;;;;;6.33;3.60;;;13.10;99.90;;;;;;5045090;28;21113;-72
2021/09/29 08:36:03;;;;;;;3.70;3.00;;;13.10;99.90;;;;;;5046514;28;20848;-72
2021/09/29 08:38:33;;;;;;;5.90;3.40;;;13.10;99.90;;;;;;5042237;28;20989;-72
2021/09/29 08:41:17;;;;;;;5.70;3.80;;;13.10;99.90;;;;;;5047028;28;20423;-72
2021/09/29 08:43:50;;;;;;;6.13;3.07;;;13.00;99.90;;;;;;5042641;28;20438;-72
2021/09/29 08:49:07;;;;;;;7.90;4.03;;;13.00;99.90;;;;;;5068499;28;20614;-73
2021/09/29 08:54:19;;;;;;;4.97;3.80;;;12.90;99.90;;;;;;5062859;28;20655;-73
2021/09/29 08:57:08;;;;;;;7.67;4.67;;;13.00;99.90;;;;;;5061731;28;20473;-73
2021/09/29 09:16:35;;;;;;;4.73;3.80;;;13.40;99.90;;;;;;5059730;28;20522;-73
2021/09/29 09:21:52;;;;;;;6.00;3.43;;;13.60;99.90;;;;;;5169105;27;20531;-72
2021/09/29 09:24:21;;;;;;;4.93;4.43;;;13.50;99.90;;;;;;5164861;27;20428;-72
2021/09/29 09:27:08;;;;;;;6.90;4.27;;;13.50;99.90;;;;;;5170152;27;20451;-73
2021/09/29 09:29:53;;;;;;;7.13;4.50;;;13.40;99.90;;;;;;5153681;27;20456;-73
2021/09/29 09:32:23;;;;;;;5.70;3.97;;;13.40;99.90;;;;;;5152063;27;20445;-73
2021/09/29 09:35:08;;;;;;;4.37;3.73;;;13.30;99.90;;;;;;5167501;27;20418;-73
2021/09/29 09:37:38;;;;;;;4.50;3.37;;;13.30;99.90;;;;;;5163566;27;20760;-73
2021/09/29 09:42:47;;;;;;;6.77;4.93;;;13.30;99.90;;;;;;5061431;28;20581;-72
2021/09/29 09:45:13;;;;;;;11.37;4.30;;;13.40;99.90;;;;;;5044080;28;20437;-73
2021/09/29 09:47:43;;;;;;;4.53;3.40;;;13.40;99.90;;;;;;5043439;28;20431;-73
2021/09/29 09:50:09;;;;;;;8.97;3.70;;;13.40;99.90;;;;;;5036865;28;20469;-73
2021/09/29 09:52:41;;;;;;;5.27;3.60;;;13.30;99.90;;;;;;5041324;28;20441;-73
2021/09/29 09:55:13;;;;;;;7.70;4.57;;;13.30;99.90;;;;;;5044557;28;20484;-73
2021/09/29 09:57:40;;;;;;;7.30;5.47;;;13.30;99.90;;;;;;5041412;28;20461;-74
2021/09/29 10:00:09;;;;;;;6.80;4.20;;;13.30;99.90;;;;;;5039270;28;20422;-73
2021/09/29 10:02:44;;;;;;;7.13;4.47;;;13.20;99.90;;;;;;5042169;28;20459;-73
2021/09/29 10:05:13;;;;;;;9.40;6.53;;;13.20;99.90;;;;;;5040054;28;20446;-73
2021/09/29 10:07:39;;;;;;;9.17;5.90;;;13.20;99.90;;;;;;5041405;28;20441;-73
2021/09/29 10:10:21;;;;;;;6.80;4.70;;;13.20;99.90;;;;;;5041144;28;20427;-73
2021/09/29 10:13:09;;;;;;;4.40;3.70;;;13.20;99.90;;;;;;5041287;28;20422;-73
2021/09/29 10:24:07;;;;;;;21.03;3.70;;;13.20;99.90;;;;;;5046634;28;20406;-72
2021/09/29 10:26:33;;;;;;;5.30;3.60;;;13.20;99.90;;;;;;5040961;28;20467;-73
2021/09/29 10:29:06;;;;;;;4.37;3.93;;;13.20;99.90;;;;;;5041472;28;20485;-73
2021/09/29 10:34:27;;;;;;;4.70;2.90;;;13.20;99.90;;;;;;5050397;28;20651;-73
2021/09/29 10:53:14;;;;;;;4.20;2.43;;;13.80;99.90;;;;;;5097995;27;20661;-72
2021/09/29 11:04:25;;;;;;;1.83;1.70;;;13.90;99.90;;;;;;5086243;28;20429;-73
2021/09/29 11:28:58;;;;;;;1.70;1.50;;;13.70;99.90;;;;;;5052235;28;20750;-73
2021/09/29 11:31:27;;;;;;;2.67;1.50;;;13.70;99.90;;;;;;5044059;28;20765;-74
2021/09/29 11:39:34;;;;;;;3.77;1.63;;;14.00;99.90;;;;;;5094537;28;20459;-74
2021/09/29 12:10:04;;;;;;;2.33;2.20;;;15.00;99.90;;;;;;5095299;28;20426;-73
2021/09/29 12:12:35;;;;;;;2.67;2.00;;;15.10;99.90;;;;;;5109556;28;20404;-73
2021/09/29 12:15:04;;;;;;;3.37;1.87;;;15.20;99.90;;;;;;5108091;28;20668;-73
2021/09/29 12:17:34;;;;;;;3.73;3.03;;;15.20;99.90;;;;;;5109340;28;20444;-73
2021/09/29 12:20:10;;;;;;;3.10;2.70;;;15.20;99.90;;;;;;5109076;28;20431;-73
2021/09/29 12:22:44;;;;;;;4.00;3.60;;;15.20;99.90;;;;;;5108613;28;20430;-73
2021/09/29 12:25:14;;;;;;;2.80;2.60;;;15.20;99.90;;;;;;5111851;28;21030;-73
2021/09/29 12:27:50;;;;;;;3.40;2.37;;;15.20;99.90;;;;;;5112999;28;20432;-73
2021/09/29 12:30:22;;;;;;;4.47;2.43;;;15.20;99.90;;;;;;5111432;28;20467;-73
2021/09/29 12:33:07;;;;;;;4.47;2.37;;;15.20;99.90;;;;;;5109173;28;20448;-73
2021/09/29 12:35:37;;;;;;;4.60;2.60;;;15.10;99.90;;;;;;5109799;28;21091;-73
2021/09/29 12:38:03;;;;;;;2.80;2.60;;;15.10;99.90;;;;;;5104044;28;20424;-73
2021/09/29 12:40:33;;;;;;;3.57;2.50;;;15.10;99.90;;;;;;5098930;28;20434;-73
2021/09/29 12:43:02;;;;;;;4.00;2.53;;;15.20;99.90;;;;;;5100013;28;20427;-73
2021/09/29 12:45:34;;;;;;;2.70;2.43;;;15.20;99.90;;;;;;5105125;28;20429;-73
2021/09/29 12:48:01;;;;;;;3.60;2.40;;;15.20;99.90;;;;;;5088608;28;20834;-73
2021/09/29 12:50:38;;;;;;;3.20;2.90;;;15.20;99.90;;;;;;5094485;28;20432;-73
2021/09/29 12:53:16;;;;;;;3.93;2.83;;;15.20;99.90;;;;;;5090935;28;21020;-73
2021/09/29 12:55:45;;;;;;;3.43;3.10;;;15.30;99.90;;;;;;5094264;28;20570;-73
2021/09/29 12:58:11;;;;;;;7.50;3.13;;;15.40;99.90;;;;;;5088878;28;20440;-73
2021/09/29 13:00:36;;;;;;;2.63;2.43;;;15.50;99.90;;;;;;5092931;28;21068;-73
2021/09/29 13:03:05;;;;;;;3.60;2.60;;;15.70;99.90;;;;;;5094403;28;20183;-72
2021/09/29 13:05:31;;;;;;;3.40;2.30;;;15.70;99.90;;;;;;5091402;28;20638;-73
2021/09/29 13:07:57;;;;;;;3.20;2.20;;;15.70;99.90;;;;;;5094729;28;20943;-73
2021/09/29 13:10:22;;;;;;;2.17;2.00;;;15.80;99.90;;;;;;5094656;28;20472;-73
2021/09/29 13:12:52;;;;;;;2.67;1.43;;;15.80;99.90;;;;;;5093384;28;20198;-73
2021/09/29 13:15:18;;;;;;;4.70;1.07;;;15.70;99.90;;;;;;5098860;28;20201;-73
2021/09/29 13:17:46;;;;;;;1.00;0.80;;;15.40;99.90;;;;;;5089370;28;20482;-73
2021/09/29 13:20:16;;;;;;;3.13;0.83;;;15.00;99.90;;;;;;5079777;28;20451;-72
2021/09/29 13:22:46;;;;;;;3.17;1.07;;;14.50;99.90;;;;;;5079293;28;20432;-72
2021/09/29 13:38:52;;;;;;;1.43;1.20;;;12.70;99.90;;;;;;5095878;28;20419;-73
2021/09/29 13:41:17;;;;;;;3.37;1.70;;;12.60;99.90;;;;;;5090140;27;20426;-73
2021/09/29 13:43:43;;;;;;;1.20;1.07;;;12.50;99.90;;;;;;5096072;28;20213;-73
2021/09/29 13:46:09;;;;;;;1.93;1.33;;;12.40;99.90;;;;;;5094558;28;20628;-73
2021/09/29 13:48:35;;;;;;;2.43;1.37;;;12.40;99.90;;;;;;5089789;28;20265;-73
2021/09/29 13:51:01;;;;;;;4.30;1.43;;;12.50;99.90;;;;;;5096114;28;20542;-73
2021/09/29 13:53:28;;;;;;;1.10;1.00;;;12.60;99.90;;;;;;5094818;28;20430;-73
2021/09/29 13:55:56;;;;;;;3.47;1.13;;;12.70;99.90;;;;;;5088968;28;20600;-73
2021/09/29 13:58:37;;;;;;;2.40;1.03;;;12.70;99.90;;;;;;5091398;28;20921;-73
2021/09/29 14:28:45;;;;;;;3.90;1.77;;;12.30;99.90;;;;;;5030028;28;20993;-73
2021/09/29 14:31:15;;;;;;;1.63;1.17;;;12.30;99.90;;;;;;5018442;28;20416;-73
2021/09/29 14:33:45;;;;;;;2.60;1.57;;;12.40;99.90;;;;;;5022911;28;20935;-73
2021/09/29 14:36:11;;;;;;;3.07;1.53;;;12.50;99.90;;;;;;5031130;28;20577;-73
2021/09/29 14:38:37;;;;;;;2.40;1.10;;;12.60;99.90;;;;;;5039207;28;20526;-73
2021/09/29 14:41:02;;;;;;;4.60;1.53;;;12.70;99.90;;;;;;5034497;28;20649;-73
2021/09/29 14:43:28;;;;;;;2.77;1.20;;;12.80;99.90;;;;;;5039318;28;20234;-73
2021/09/29 14:45:54;;;;;;;2.37;1.30;;;12.90;99.90;;;;;;5040066;28;20234;-73
2021/09/29 14:48:19;;;;;;;1.73;1.33;;;12.90;99.90;;;;;;5037698;28;20181;-73
2021/09/29 14:50:49;;;;;;;4.47;1.50;;;12.90;99.90;;;;;;5039449;28;20188;-73
2021/09/29 14:53:15;;;;;;;3.00;1.40;;;12.90;99.90;;;;;;5036385;28;21420;-73
2021/09/29 14:55:40;;;;;;;2.40;1.50;;;12.90;99.90;;;;;;5030767;28;20466;-73
2021/09/29 14:58:07;;;;;;;2.37;1.30;;;12.80;99.90;;;;;;5037769;28;20180;-73
2021/09/29 15:00:33;;;;;;;2.00;1.80;;;12.80;99.90;;;;;;5034560;28;20613;-73
2021/09/29 15:02:59;;;;;;;2.00;1.60;;;12.80;99.90;;;;;;5033617;28;20457;-73
2021/09/29 15:05:25;;;;;;;2.53;1.60;;;12.70;99.90;;;;;;5035253;28;20196;-73
2021/09/29 15:07:51;;;;;;;2.03;1.30;;;12.80;99.90;;;;;;5041997;28;20434;-75
2021/09/29 15:10:17;;;;;;;2.83;1.40;;;12.80;99.90;;;;;;5027971;28;20423;-75
2021/09/29 15:12:42;;;;;;;2.17;1.70;;;12.80;99.90;;;;;;5036643;28;20384;-75
2021/09/29 15:17:54;;;;;;;3.40;1.87;;;12.90;99.90;;;;;;5094839;27;20531;-73
2021/09/29 15:20:39;;;;;;;1.37;1.27;;;12.90;99.90;;;;;;5062018;28;20436;-72
2021/09/29 15:23:21;;;;;;;1.40;1.27;;;12.90;99.90;;;;;;5068878;28;20416;-72
2021/09/29 15:26:04;;;;;;;1.97;1.30;;;12.90;99.90;;;;;;5056275;28;20994;-72
2021/09/29 15:46:16;;;;;;;6.80;2.87;;;12.80;99.90;;;;;;5111735;27;20554;-74
2021/09/29 15:50:32;;;;;;;3.17;1.90;;;13.00;99.90;;;;;;5091619;28;20952;-73
2021/09/29 15:56:02;;;;;;;2.80;1.13;;;13.00;99.90;;;;;;5087052;28;20419;-73
2021/09/29 15:58:38;;;;;;;3.63;1.40;;;13.00;99.90;;;;;;5091067;28;20868;-75
2021/09/29 16:01:06;;;;;;;2.30;1.27;;;13.00;99.90;;;;;;5082350;28;20421;-75
2021/09/29 16:03:43;;;;;;;2.57;1.90;;;13.00;99.90;;;;;;5096687;28;20418;-75
2021/09/29 16:17:29;;;;;;;2.03;1.70;;;12.60;99.90;;;;;;5097690;28;20416;-73
2021/09/29 16:31:04;;;;;;;2.30;2.00;;;12.50;99.90;;;;;;5057935;28;20520;-74
2021/09/29 16:33:50;;;;;;;5.10;3.80;;;12.50;99.90;;;;;;5040663;28;20519;-73
2021/09/29 16:36:16;;;;;;;6.20;3.80;;;12.50;99.90;;;;;;5029596;28;20943;-73
2021/09/29 16:38:44;;;;;;;3.30;2.97;;;12.50;99.90;;;;;;5034362;28;20496;-73